createdAt,value
2022-08-31T00:01:49.312Z,2.50
2022-08-31T00:04:51.307Z,3.00
2022-08-31T00:07:55.504Z,2.75
2022-08-31T00:10:58.330Z,3.10
2022-08-31T00:14:04.447Z,2.70
2022-08-31T00:17:07.555Z,2.40
2022-08-31T00:20:23.324Z,2.92
2022-08-31T00:23:33.086Z,2.88
2022-08-31T00:26:35.638Z,2.85
2022-08-31T00:29:37.562Z,2.88
2022-08-31T00:32:39.779Z,2.55
2022-08-31T00:35:44.052Z,3.08
2022-08-31T00:38:45.919Z,2.58
2022-08-31T00:41:48.392Z,2.80
2022-08-31T00:44:50.905Z,2.22
2022-08-31T00:47:54.094Z,2.55
2022-08-31T00:50:57.261Z,2.80
2022-08-31T00:53:59.875Z,2.78
2022-08-31T00:57:02.584Z,2.78
2022-08-31T01:00:12.346Z,2.72
2022-08-31T01:03:16.181Z,2.35
2022-08-31T01:06:18.672Z,2.60
2022-08-31T01:09:22.634Z,2.60
2022-08-31T01:12:28.556Z,2.97
2022-08-31T01:15:32.032Z,2.22
2022-08-31T01:18:35.128Z,2.85
2022-08-31T01:21:45.231Z,2.78
2022-08-31T01:24:48.398Z,2.92
2022-08-31T01:27:50.249Z,3.10
2022-08-31T01:31:09.565Z,2.97
2022-08-31T01:34:13.955Z,2.33
2022-08-31T01:37:16.130Z,2.70
2022-08-31T01:40:18.313Z,2.88
2022-08-31T01:43:20.815Z,2.97
2022-08-31T01:46:24.299Z,3.17
2022-08-31T01:52:34.334Z,2.63
2022-08-31T01:55:36.892Z,2.58
2022-08-31T01:58:38.866Z,2.60
2022-08-31T02:02:09.955Z,2.70
2022-08-31T02:05:12.375Z,3.13
2022-08-31T02:08:14.414Z,3.22
2022-08-31T02:11:16.425Z,2.55
2022-08-31T02:14:18.928Z,3.20
2022-08-31T02:17:20.843Z,2.97
2022-08-31T02:20:22.767Z,2.90
2022-08-31T02:23:25.708Z,3.10
2022-08-31T02:26:27.918Z,3.58
2022-08-31T02:29:30.120Z,3.25
2022-08-31T02:32:32.337Z,3.13
2022-08-31T02:35:35.151Z,3.13
2022-08-31T02:38:37.915Z,3.30
2022-08-31T02:41:40.383Z,3.40
2022-08-31T02:44:42.566Z,3.17
2022-08-31T02:47:44.581Z,3.05
2022-08-31T02:51:08.792Z,3.40
2022-08-31T02:54:11.921Z,3.33
2022-08-31T02:57:14.060Z,3.05
2022-08-31T03:00:16.270Z,3.40
2022-08-31T03:03:19.214Z,3.15
2022-08-31T03:06:23.114Z,3.58
2022-08-31T03:09:25.064Z,3.53
2022-08-31T03:12:27.202Z,3.70
2022-08-31T03:15:31.198Z,4.28
2022-08-31T03:18:36.994Z,3.80
2022-08-31T03:21:38.769Z,4.07
2022-08-31T03:24:42.133Z,4.15
2022-08-31T03:27:45.889Z,3.72
2022-08-31T03:30:50.915Z,4.40
2022-08-31T03:33:57.884Z,3.50
2022-08-31T03:37:00.522Z,3.70
2022-08-31T03:40:04.667Z,4.40
2022-08-31T03:43:16.386Z,3.88
2022-08-31T03:46:19.641Z,4.30
2022-08-31T03:49:22.682Z,4.28
2022-08-31T03:52:47.970Z,4.57
2022-08-31T03:56:01.198Z,4.35
2022-08-31T03:59:07.103Z,3.88
2022-08-31T04:02:31.951Z,4.00
2022-08-31T04:05:55.617Z,3.80
2022-08-31T04:09:17.061Z,3.65
2022-08-31T04:12:42.445Z,3.58
2022-08-31T04:16:01.071Z,3.92
2022-08-31T04:19:41.341Z,3.28
2022-08-31T04:23:11.358Z,3.63
2022-08-31T04:26:24.199Z,3.22
2022-08-31T04:29:26.751Z,4.03
2022-08-31T04:32:29.089Z,3.83
2022-08-31T04:35:31.964Z,3.95
2022-08-31T04:38:35.208Z,3.83
2022-08-31T04:41:40.209Z,3.95
2022-08-31T04:44:46.338Z,3.78
2022-08-31T04:47:49.225Z,3.13
2022-08-31T04:50:51.467Z,3.05
2022-08-31T04:53:54.192Z,3.60
2022-08-31T04:56:56.218Z,3.60
2022-08-31T05:00:06.332Z,3.83
2022-08-31T05:03:27.266Z,3.33
2022-08-31T05:06:33.127Z,3.70
2022-08-31T05:09:38.384Z,3.70
2022-08-31T05:12:40.331Z,3.17
2022-08-31T05:15:44.174Z,3.40
2022-08-31T05:18:51.507Z,3.83
2022-08-31T05:21:55.102Z,2.72
2022-08-31T05:24:59.062Z,3.30
2022-08-31T05:28:01.290Z,3.13
2022-08-31T05:31:04.020Z,3.53
2022-08-31T05:34:15.406Z,3.63
2022-08-31T05:37:18.781Z,3.95
2022-08-31T05:40:21.390Z,2.85
2022-08-31T05:43:23.637Z,3.17
2022-08-31T05:46:26.051Z,4.10
2022-08-31T05:49:28.808Z,3.95
2022-08-31T05:52:31.161Z,3.10
2022-08-31T05:55:34.102Z,3.40
2022-08-31T05:58:37.933Z,3.35
2022-08-31T06:01:41.616Z,3.63
2022-08-31T06:04:57.929Z,3.92
2022-08-31T06:08:00.930Z,3.28
2022-08-31T06:11:04.534Z,4.10
2022-08-31T06:14:07.281Z,3.60
2022-08-31T06:17:09.543Z,3.30
2022-08-31T06:20:17.047Z,3.03
2022-08-31T06:23:21.200Z,3.22
2022-08-31T06:26:27.061Z,3.45
2022-08-31T06:29:35.533Z,3.17
2022-08-31T06:32:37.859Z,2.92
2022-08-31T06:35:41.586Z,3.70
2022-08-31T06:39:02.852Z,2.97
2022-08-31T06:42:25.375Z,3.03
2022-08-31T06:45:27.488Z,2.88
2022-08-31T06:48:37.167Z,3.05
2022-08-31T06:51:39.479Z,3.28
2022-08-31T06:54:42.025Z,3.17
2022-08-31T06:58:04.395Z,3.28
2022-08-31T07:01:35.201Z,3.53
2022-08-31T07:05:01.493Z,2.90
2022-08-31T07:08:04.418Z,3.28
2022-08-31T07:11:15.859Z,3.20
2022-08-31T07:14:24.514Z,2.97
2022-08-31T07:17:28.337Z,2.45
2022-08-31T07:20:30.955Z,2.95
2022-08-31T07:23:34.845Z,3.10
2022-08-31T07:26:48.844Z,3.05
2022-08-31T07:29:57.915Z,3.20
2022-08-31T07:33:01.154Z,2.80
2022-08-31T07:36:03.910Z,3.10
2022-08-31T07:39:35.640Z,3.45
2022-08-31T07:42:41.701Z,2.85
2022-08-31T07:45:44.417Z,3.38
2022-08-31T07:48:50.859Z,2.80
2022-08-31T07:52:13.018Z,2.80
2022-08-31T07:55:36.569Z,3.22
2022-08-31T07:58:43.959Z,2.70
2022-08-31T08:01:48.822Z,3.58
2022-08-31T08:04:54.220Z,3.45
2022-08-31T08:08:26.198Z,2.88
2022-08-31T08:11:39.736Z,2.42
2022-08-31T08:15:06.377Z,3.05
2022-08-31T08:18:35.962Z,3.03
2022-08-31T08:21:38.617Z,2.90
2022-08-31T08:24:42.600Z,2.85
2022-08-31T08:28:22.825Z,2.55
2022-08-31T08:31:29.235Z,2.60
2022-08-31T08:34:32.872Z,2.75
2022-08-31T08:37:57.922Z,2.78
2022-08-31T08:41:06.918Z,1.90
2022-08-31T08:44:17.811Z,2.28
2022-08-31T08:47:25.031Z,1.52
2022-08-31T08:50:36.765Z,2.28
2022-08-31T08:53:42.336Z,2.63
2022-08-31T08:57:01.645Z,2.80
2022-08-31T09:00:25.549Z,2.10
2022-08-31T09:03:45.650Z,1.85
2022-08-31T09:07:05.325Z,2.20
2022-08-31T09:10:23.921Z,2.13
2022-08-31T09:13:49.542Z,2.83
2022-08-31T09:16:52.267Z,2.10
2022-08-31T09:20:00.638Z,2.33
2022-08-31T09:23:08.828Z,2.50
2022-08-31T09:26:17.128Z,2.13
2022-08-31T09:29:45.661Z,1.83
2022-08-31T09:32:57.928Z,1.58
2022-08-31T09:36:20.264Z,1.42
2022-08-31T09:39:32.843Z,2.03
2022-08-31T09:42:39.224Z,1.48
2022-08-31T09:45:54.339Z,1.45
2022-08-31T09:48:58.868Z,1.55
2022-08-31T09:52:19.178Z,1.77
2022-08-31T09:55:26.036Z,1.90
2022-08-31T09:58:31.700Z,1.70
2022-08-31T10:01:43.499Z,1.52
2022-08-31T10:04:48.403Z,1.70
2022-08-31T10:07:58.668Z,1.50
2022-08-31T10:11:27.719Z,1.75
2022-08-31T10:15:02.804Z,1.60
2022-08-31T10:18:56.379Z,1.88
2022-08-31T10:22:31.313Z,1.70
2022-08-31T10:25:43.443Z,1.45
2022-08-31T10:28:52.945Z,1.63
2022-08-31T10:31:58.478Z,1.55
2022-08-31T10:35:10.724Z,1.77
2022-08-31T10:38:24.254Z,1.58
2022-08-31T10:41:31.303Z,2.00
2022-08-31T10:44:39.851Z,1.83
2022-08-31T10:47:47.277Z,1.60
2022-08-31T10:51:06.761Z,1.70
2022-08-31T10:54:41.014Z,1.45
2022-08-31T10:57:51.806Z,1.58
2022-08-31T11:01:01.280Z,1.42
2022-08-31T11:04:22.396Z,1.35
2022-08-31T11:07:45.856Z,1.73
2022-08-31T11:10:48.094Z,1.30
2022-08-31T11:14:24.539Z,1.70
2022-08-31T11:17:51.252Z,1.52
2022-08-31T11:21:08.223Z,1.50
2022-08-31T11:24:49.319Z,1.30
2022-08-31T11:28:34.367Z,1.42
2022-08-31T11:31:39.547Z,1.20
2022-08-31T11:34:51.816Z,1.37
2022-08-31T11:37:56.226Z,1.30
2022-08-31T11:41:05.235Z,1.23
2022-08-31T11:44:09.641Z,1.23
2022-08-31T11:47:30.358Z,1.42
2022-08-31T11:50:54.844Z,1.20
2022-08-31T11:53:56.921Z,1.20
2022-08-31T11:56:59.820Z,0.90
2022-08-31T12:00:02.443Z,1.30
2022-08-31T12:03:09.846Z,1.23
2022-08-31T12:06:37.656Z,1.23
2022-08-31T12:09:52.319Z,1.40
2022-08-31T12:12:55.381Z,1.40
2022-08-31T12:16:05.779Z,1.27
2022-08-31T12:19:45.763Z,1.20
2022-08-31T12:23:07.045Z,1.17
2022-08-31T12:26:45.161Z,1.10
2022-08-31T12:29:48.197Z,1.13
2022-08-31T12:33:05.932Z,1.48
2022-08-31T12:36:15.342Z,1.13
2022-08-31T12:39:23.995Z,1.15
2022-08-31T12:42:28.809Z,1.30
2022-08-31T12:45:59.686Z,1.27
2022-08-31T12:49:21.863Z,1.08
2022-08-31T12:52:42.988Z,1.30
2022-08-31T12:56:07.445Z,1.27
2022-08-31T12:59:59.802Z,1.35
2022-08-31T13:03:23.816Z,1.13
2022-08-31T13:06:35.295Z,1.15
2022-08-31T13:09:37.314Z,1.38
2022-08-31T13:12:40.052Z,1.70
2022-08-31T13:15:44.137Z,1.08
2022-08-31T13:18:46.797Z,0.90
2022-08-31T13:21:55.146Z,1.05
2022-08-31T13:25:10.943Z,0.98
2022-08-31T13:28:14.334Z,1.00
2022-08-31T13:31:24.265Z,1.20
2022-08-31T13:34:27.102Z,1.20
2022-08-31T13:37:32.990Z,0.90
2022-08-31T13:40:40.681Z,1.00
2022-08-31T13:43:54.110Z,1.15
2022-08-31T13:47:03.196Z,1.00
2022-08-31T13:50:13.327Z,1.45
2022-08-31T13:53:39.975Z,1.20
2022-08-31T13:56:55.045Z,1.30
2022-08-31T14:00:28.188Z,1.13
2022-08-31T14:03:46.641Z,1.20
2022-08-31T14:06:50.921Z,1.30
2022-08-31T14:10:19.484Z,1.30
2022-08-31T14:13:25.303Z,1.40
2022-08-31T14:16:32.799Z,1.45
2022-08-31T14:19:42.511Z,1.33
2022-08-31T14:22:47.093Z,1.40
2022-08-31T14:25:50.789Z,1.58
2022-08-31T14:28:55.706Z,0.85
2022-08-31T14:32:00.116Z,0.90
2022-08-31T14:35:02.831Z,0.80
2022-08-31T14:38:05.567Z,1.02
2022-08-31T14:41:12.454Z,0.77
2022-08-31T14:44:18.669Z,1.33
2022-08-31T14:47:24.502Z,0.90
2022-08-31T14:50:27.459Z,0.70
2022-08-31T14:53:37.439Z,1.00
2022-08-31T14:56:46.043Z,0.80
2022-08-31T14:59:52.347Z,0.80
2022-08-31T15:02:55.185Z,0.98
2022-08-31T15:06:03.566Z,0.90
2022-08-31T15:09:08.536Z,0.82
2022-08-31T15:12:14.711Z,0.60
2022-08-31T15:15:22.216Z,0.70
2022-08-31T15:18:27.416Z,0.90
2022-08-31T15:21:32.441Z,0.80
2022-08-31T15:24:37.469Z,1.17
2022-08-31T15:27:44.482Z,0.95
2022-08-31T15:30:47.355Z,0.73
2022-08-31T15:33:51.834Z,1.10
2022-08-31T15:36:56.857Z,0.82
2022-08-31T15:40:00.027Z,0.70
2022-08-31T15:43:02.452Z,0.75
2022-08-31T15:46:04.713Z,0.70
2022-08-31T15:49:10.070Z,0.63
2022-08-31T15:52:12.922Z,0.75
2022-08-31T15:55:18.135Z,0.70
2022-08-31T15:58:25.293Z,1.08
2022-08-31T16:01:28.295Z,0.68
2022-08-31T16:04:33.507Z,0.40
2022-08-31T16:07:36.440Z,0.65
2022-08-31T16:10:44.892Z,0.68
2022-08-31T16:13:52.172Z,0.70
2022-08-31T16:16:54.285Z,0.68
2022-08-31T16:19:56.528Z,0.55
2022-08-31T16:22:59.385Z,0.55
2022-08-31T16:26:05.654Z,0.38
2022-08-31T16:29:15.203Z,0.50
2022-08-31T16:32:18.125Z,0.65
2022-08-31T16:35:20.906Z,0.50
2022-08-31T16:38:26.336Z,0.52
2022-08-31T16:41:30.563Z,0.60
2022-08-31T16:44:36.579Z,0.60
2022-08-31T16:47:40.871Z,0.70
2022-08-31T16:50:53.728Z,0.60
2022-08-31T16:53:59.662Z,0.50
2022-08-31T16:57:03.806Z,0.60
2022-08-31T17:00:06.989Z,0.60
2022-08-31T17:03:10.047Z,0.80
2022-08-31T17:06:13.913Z,0.88
2022-08-31T17:09:23.634Z,0.88
2022-08-31T17:12:29.123Z,0.70
2022-08-31T17:15:32.368Z,0.50
2022-08-31T17:18:35.438Z,0.63
2022-08-31T17:21:51.339Z,0.73
2022-08-31T17:24:56.480Z,0.82
2022-08-31T17:28:04.472Z,0.60
2022-08-31T17:31:10.723Z,0.70
2022-08-31T17:34:18.051Z,0.82
2022-08-31T17:37:24.258Z,0.90
2022-08-31T17:40:27.360Z,1.00
2022-08-31T17:43:30.215Z,0.73
2022-08-31T17:46:33.430Z,1.10
2022-08-31T17:49:37.850Z,0.90
2022-08-31T17:52:40.705Z,0.85
2022-08-31T17:55:42.992Z,1.17
2022-08-31T17:58:45.298Z,1.00
2022-08-31T18:01:50.380Z,1.00
2022-08-31T18:04:53.029Z,1.00
2022-08-31T18:07:55.656Z,1.00
2022-08-31T18:10:57.919Z,1.02
2022-08-31T18:14:00.350Z,1.20
2022-08-31T18:17:04.204Z,1.65
2022-08-31T18:20:06.808Z,1.02
2022-08-31T18:23:10.232Z,1.15
2022-08-31T18:26:15.643Z,1.05
2022-08-31T18:29:22.615Z,1.13
2022-08-31T18:32:29.410Z,0.85
2022-08-31T18:35:31.454Z,1.23
2022-08-31T18:38:35.117Z,1.02
2022-08-31T18:41:56.509Z,1.20
2022-08-31T18:45:19.439Z,1.30
2022-08-31T18:48:26.433Z,0.70
2022-08-31T18:51:29.735Z,0.90
2022-08-31T18:54:33.583Z,0.80
2022-08-31T18:57:48.431Z,1.05
2022-08-31T19:00:57.737Z,0.77
2022-08-31T19:04:02.157Z,0.88
2022-08-31T19:07:05.850Z,1.08
2022-08-31T19:10:13.297Z,1.23
2022-08-31T19:13:16.771Z,1.00
2022-08-31T19:16:22.019Z,0.90
2022-08-31T19:19:24.656Z,0.93
2022-08-31T19:22:27.274Z,0.82
2022-08-31T19:25:32.299Z,0.80
2022-08-31T19:28:34.406Z,1.02
2022-08-31T19:31:38.828Z,0.90
2022-08-31T19:34:43.353Z,0.90
2022-08-31T19:37:45.540Z,0.82
2022-08-31T19:40:47.489Z,0.88
2022-08-31T19:44:01.942Z,0.90
2022-08-31T19:47:24.065Z,1.10
2022-08-31T19:50:26.669Z,0.88
2022-08-31T19:53:29.263Z,0.85
2022-08-31T19:56:31.647Z,1.00
2022-08-31T19:59:34.404Z,1.13
2022-08-31T20:02:37.277Z,1.23
2022-08-31T20:05:43.714Z,1.05
2022-08-31T20:08:47.049Z,1.10
2022-08-31T20:11:50.180Z,0.70
2022-08-31T20:14:52.666Z,1.17
2022-08-31T20:17:57.790Z,0.88
2022-08-31T20:21:03.352Z,0.95
2022-08-31T20:24:08.051Z,0.98
2022-08-31T20:27:10.777Z,1.02
2022-08-31T20:30:13.949Z,1.02
2022-08-31T20:33:16.172Z,0.88
2022-08-31T20:36:26.977Z,1.05
2022-08-31T20:39:31.455Z,1.40
2022-08-31T20:42:33.557Z,1.08
2022-08-31T20:45:35.699Z,1.00
2022-08-31T20:48:56.440Z,0.93
2022-08-31T20:51:59.950Z,1.00
2022-08-31T20:55:05.303Z,1.13
2022-08-31T20:58:07.443Z,0.93
2022-08-31T21:01:10.868Z,1.10
2022-08-31T21:04:14.904Z,1.08
2022-08-31T21:07:18.094Z,1.40
2022-08-31T21:10:36.155Z,1.17
2022-08-31T21:13:38.707Z,1.17
2022-08-31T21:16:41.038Z,0.85
2022-08-31T21:19:44.932Z,1.08
2022-08-31T21:22:47.114Z,1.23
2022-08-31T21:25:49.034Z,1.05
2022-08-31T21:28:52.694Z,1.00
2022-08-31T21:32:01.290Z,1.08
2022-08-31T21:35:05.800Z,0.93
2022-08-31T21:38:12.296Z,1.10
2022-08-31T21:41:14.274Z,1.00
2022-08-31T21:44:18.199Z,0.93
2022-08-31T21:47:20.224Z,0.93
2022-08-31T21:50:22.174Z,1.10
2022-08-31T21:53:26.035Z,1.00
2022-08-31T21:56:30.377Z,0.95
2022-08-31T21:59:35.663Z,1.10
2022-08-31T22:02:37.605Z,0.80
2022-08-31T22:05:41.772Z,0.88
2022-08-31T22:08:43.822Z,1.00
2022-08-31T22:11:50.771Z,0.80
2022-08-31T22:14:53.538Z,0.90
2022-08-31T22:18:15.458Z,1.23
2022-08-31T22:21:24.064Z,1.02
2022-08-31T22:24:30.678Z,0.75
2022-08-31T22:27:33.767Z,1.50
2022-08-31T22:30:36.425Z,1.15
2022-08-31T22:33:39.760Z,0.90
2022-08-31T22:36:53.272Z,0.77
2022-08-31T22:39:55.778Z,1.00
2022-08-31T22:42:58.675Z,0.80
2022-08-31T22:46:00.837Z,0.95
2022-08-31T22:49:03.477Z,1.10
2022-08-31T22:52:05.861Z,0.88
2022-08-31T22:55:08.905Z,1.42
2022-08-31T22:58:12.678Z,0.90
2022-08-31T23:01:23.378Z,0.93
2022-08-31T23:04:27.701Z,1.02
2022-08-31T23:07:29.608Z,1.40
2022-08-31T23:10:32.626Z,1.33
2022-08-31T23:13:55.815Z,1.08
2022-08-31T23:17:01.437Z,1.20
2022-08-31T23:20:06.904Z,1.13
2022-08-31T23:23:09.021Z,1.17
2022-08-31T23:26:11.654Z,1.23
2022-08-31T23:29:15.556Z,1.10
2022-08-31T23:32:20.923Z,0.85
2022-08-31T23:35:23.368Z,1.20
2022-08-31T23:38:27.450Z,1.10
2022-08-31T23:41:30.159Z,1.13
2022-08-31T23:44:33.865Z,1.10
2022-08-31T23:47:37.004Z,1.30
2022-08-31T23:50:38.796Z,1.02
2022-08-31T23:53:40.637Z,1.20
2022-08-31T23:56:45.925Z,1.38
2022-08-31T23:59:52.230Z,1.27
